Map

Track Data

SID SEASON NUMBER BASIN SUBBASIN NAME ISO_TIME NATURE LAT LON WMO_WIND WMO_PRES WMO_AGENCY TRACK_TYPE DIST2LAND LANDFALL IFLAG USA_AGENCY USA_ATCF_ID USA_LAT USA_LON USA_RECORD USA_STATUS USA_WIND USA_PRES USA_SSHS USA_R34_NE USA_R34_SE USA_R34_SW USA_R34_NW USA_R50_NE USA_R50_SE USA_R50_SW USA_R50_NW USA_R64_NE USA_R64_SE USA_R64_SW USA_R64_NW USA_POCI USA_ROCI USA_RMW USA_EYE TOKYO_LAT TOKYO_LON TOKYO_GRADE TOKYO_WIND TOKYO_PRES TOKYO_R50_DIR TOKYO_R50_LONG TOKYO_R50_SHORT TOKYO_R30_DIR TOKYO_R30_LONG TOKYO_R30_SHORT TOKYO_LAND CMA_LAT CMA_LON CMA_CAT CMA_WIND CMA_PRES HKO_LAT HKO_LON HKO_CAT HKO_WIND HKO_PRES NEWDELHI_LAT NEWDELHI_LON NEWDELHI_GRADE NEWDELHI_WIND NEWDELHI_PRES NEWDELHI_CI NEWDELHI_DP NEWDELHI_POCI REUNION_LAT REUNION_LON REUNION_TYPE REUNION_WIND REUNION_PRES REUNION_TNUM REUNION_CI REUNION_RMW REUNION_R34_NE REUNION_R34_SE REUNION_R34_SW REUNION_R34_NW REUNION_R50_NE REUNION_R50_SE REUNION_R50_SW REUNION_R50_NW REUNION_R64_NE REUNION_R64_SE REUNION_R64_SW REUNION_R64_NW BOM_LAT BOM_LON BOM_TYPE BOM_WIND BOM_PRES BOM_TNUM BOM_CI BOM_RMW BOM_R34_NE BOM_R34_SE BOM_R34_SW BOM_R34_NW BOM_R50_NE BOM_R50_SE BOM_R50_SW BOM_R50_NW BOM_R64_NE BOM_R64_SE BOM_R64_SW BOM_R64_NW BOM_ROCI BOM_POCI BOM_EYE BOM_POS_METHOD BOM_PRES_METHOD NADI_LAT NADI_LON NADI_CAT NADI_WIND NADI_PRES WELLINGTON_LAT WELLINGTON_LON WELLINGTON_WIND WELLINGTON_PRES DS824_LAT DS824_LON DS824_STAGE DS824_WIND DS824_PRES TD9636_LAT TD9636_LON TD9636_STAGE TD9636_WIND TD9636_PRES TD9635_LAT TD9635_LON TD9635_WIND TD9635_PRES TD9635_ROCI NEUMANN_LAT NEUMANN_LON NEUMANN_CLASS NEUMANN_WIND NEUMANN_PRES MLC_LAT MLC_LON MLC_CLASS MLC_WIND MLC_PRES USA_GUST BOM_GUST BOM_GUST_PER REUNION_GUST REUNION_GUST_PER USA_SEAHGT USA_SEARAD_NE USA_SEARAD_SE USA_SEARAD_SW USA_SEARAD_NW STORM_SPEED STORM_DIR
1960028N06135 1960 5 WP MM IVY 1960-01-28 06:00:00 TS 6.30000 134.900 main 779 769 __O___________ -1 6.30000 134.900 1 23 1003 9 276
1960028N06135 1960 5 WP MM IVY 1960-01-28 09:00:00 TS 6.34757 134.452 main 769 732 __P___________ -1 6.34757 134.452 1 23 1002 9 276
1960028N06135 1960 5 WP MM IVY 1960-01-28 12:00:00 TS 6.40000 134.000 main 732 697 __O___________ -1 6.40000 134.000 1 23 1002 9 277
1960028N06135 1960 5 WP MM IVY 1960-01-28 15:00:00 TS 6.45748 133.543 main 696 662 __P___________ -1 6.45748 133.543 1 23 1002 9 276
1960028N06135 1960 5 WP MM IVY 1960-01-28 18:00:00 TS 6.50000 133.100 main 662 630 __O___________ -1 6.50000 133.100 1 23 1002 9 273
1960028N06135 1960 5 WP MM IVY 1960-01-28 21:00:00 TS 6.50747 132.685 main 630 600 __P___________ -1 6.50747 132.685 1 23 1002 8 270
1960028N06135 1960 5 WP MM IVY 1960-01-29 00:00:00 TS 6.50000 132.300 main 600 578 __O___________ -1 6.50000 132.300 1 23 1002 7 268
1960028N06135 1960 5 WP MM IVY 1960-01-29 03:00:00 TS 6.47744 131.950 main 571 551 __P___________ -1 6.47744 131.950 1 23 1002 7 270
1960028N06135 1960 5 WP MM IVY 1960-01-29 06:00:00 TS 6.50000 131.600 main 551 514 __O___________ -1 6.50000 131.600 1 23 1002 8 280
1960028N06135 1960 5 WP MM IVY 1960-01-29 09:00:00 TS 6.61255 131.178 main 514 467 __P___________ -1 6.61255 131.178 1 23 1002 9 291
1960028N06135 1960 5 WP MM IVY 1960-01-29 12:00:00 TS 6.80000 130.800 main 467 443 __O___________ -1 6.80000 130.800 1 23 1002 7 303
1960028N06135 1960 5 WP MM IVY 1960-01-29 15:00:00 TS 7.01996 130.548 main 432 419 __P___________ -1 7.01996 130.548 1 23 1002 6 321
1960028N06135 1960 5 WP MM IVY 1960-01-29 18:00:00 TS 7.30000 130.400 main 419 408 __O___________ -1 7.30000 130.400 1 23 1002 7 341
1960028N06135 1960 5 WP MM IVY 1960-01-29 21:00:00 TS 7.64998 130.327 main 408 408 __P___________ -1 7.64998 130.327 1 23 1002 7 352
1960028N06135 1960 5 WP MM IVY 1960-01-30 00:00:00 TS 8.00000 130.300 main 409 409 __O___________ -1 8.00000 130.300 1 23 1002 6 353
1960028N06135 1960 5 WP MM IVY 1960-01-30 03:00:00 TS 8.26499 130.257 main 413 402 __P___________ -1 8.26499 130.257 1 26 1001 5 349
1960028N06135 1960 5 WP MM IVY 1960-01-30 06:00:00 TS 8.50000 130.200 main 406 401 __O___________ -1 8.50000 130.200 1 29 1000 5 345
1960028N06135 1960 5 WP MM IVY 1960-01-30 09:00:00 TS 8.75748 130.122 main 404 397 __P___________ -1 8.75748 130.122 1 29 1000 5 338
1960028N06135 1960 5 WP MM IVY 1960-01-30 12:00:00 TS 9.00000 130.000 main 401 387 __O___________ -1 9.00000 130.000 1 29 1000 6 326
1960028N06135 1960 5 WP MM IVY 1960-01-30 15:00:00 TS 9.21501 129.815 main 387 368 __P___________ -1 9.21501 129.815 1 29 1000 6 315
1960028N06135 1960 5 WP MM IVY 1960-01-30 18:00:00 TS 9.40000 129.600 main 368 349 __O___________ -1 9.40000 129.600 1 29 1000 5 312
1960028N06135 1960 5 WP MM IVY 1960-01-30 21:00:00 TS 9.56494 129.422 main 352 334 __P___________ -1 9.56494 129.422 1 29 1000 5 307
1960028N06135 1960 5 WP MM IVY 1960-01-31 00:00:00 TS 9.70000 129.200 main 334 303 __O___________ -1 9.70000 129.200 1 29 1000 6 293
1960028N06135 1960 5 WP MM IVY 1960-01-31 03:00:00 TS 9.80002 128.872 main 303 264 __P___________ -1 9.80002 128.872 1 29 1000 7 286
1960028N06135 1960 5 WP MM IVY 1960-01-31 06:00:00 TS 9.90000 128.500 main 264 226 __O___________ -1 9.90000 128.500 1 29 1000 8 286
1960028N06135 1960 5 WP MM IVY 1960-01-31 09:00:00 TS 10.0201 128.113 main 226 208 __P___________ -1 10.0201 128.113 1 29 1000 8 294
1960028N06135 1960 5 WP MM IVY 1960-01-31 12:00:00 TS 10.2000 127.800 main 208 202 __O___________ -1 10.2000 127.800 1 29 1000 7 315
1960028N06135 1960 5 WP MM IVY 1960-01-31 15:00:00 TS 10.4849 127.633 main 204 197 __P___________ -1 10.4849 127.633 1 29 1000 6 342
1960028N06135 1960 5 WP MM IVY 1960-01-31 18:00:00 TS 10.8000 127.600 main 197 196 __O___________ -1 10.8000 127.600 1 29 1000 6 0
1960028N06135 1960 5 WP MM IVY 1960-01-31 21:00:00 TS 11.0799 127.640 main 196 196 __P___________ -1 11.0799 127.640 1 29 1000 5 22
1960028N06135 1960 5 WP MM IVY 1960-02-01 00:00:00 TS 11.3000 127.800 main 220 220 __O___________ -1 11.3000 127.800 1 29 1000 5 51
1960028N06135 1960 5 WP MM IVY 1960-02-01 03:00:00 TS 11.4150 128.055 main 255 255 __P___________ -1 11.4150 128.055 1 29 1000 6 71
1960028N06135 1960 5 WP MM IVY 1960-02-01 06:00:00 TS 11.5000 128.400 main 289 289 __O___________ -1 11.5000 128.400 1 29 1000 7 71
1960028N06135 1960 5 WP MM IVY 1960-02-01 09:00:00 TS 11.6575 128.777 main 336 336 __P___________ -1 11.6575 128.777 1 29 1000 8 69
1960028N06135 1960 5 WP MM IVY 1960-02-01 12:00:00 TS 11.8000 129.200 main 381 381 __O___________ -1 11.8000 129.200 1 29 1000 9 77
1960028N06135 1960 5 WP MM IVY 1960-02-01 15:00:00 TS 11.8575 129.643 main 426 426 __P___________ -1 11.8575 129.643 1 29 1000 9 84
1960028N06135 1960 5 WP MM IVY 1960-02-01 18:00:00 TS 11.9000 130.100 main 479 479 __O___________ -1 11.9000 130.100 1 29 1000 9 83
1960028N06135 1960 5 WP MM IVY 1960-02-01 21:00:00 TS 11.9623 130.528 main 524 524 __P___________ -1 11.9623 130.528 1 29 1001 9 77
1960028N06135 1960 5 WP MM IVY 1960-02-02 00:00:00 TS 12.1000 131.000 main 580 580 __O___________ -1 12.1000 131.000 1 29 1002 11 69
1960028N06135 1960 5 WP MM IVY 1960-02-02 03:00:00 TS 12.3548 131.548 main 640 640 __P___________ -1 12.3548 131.548 1 29 1002 13 63
1960028N06135 1960 5 WP MM IVY 1960-02-02 06:00:00 TS 12.7000 132.200 main 722 722 __O___________ -1 12.7000 132.200 1 29 1002 15 60
1960028N06135 1960 5 WP MM IVY 1960-02-02 09:00:00 TS 13.1064 132.880 main 807 807 __P___________ -1 13.1064 132.880 1 29 1002 18 63
1960028N06135 1960 5 WP MM IVY 1960-02-02 12:00:00 TS 13.5000 133.800 main 911 911 __O___________ -1 13.5000 133.800 1 29 1002 22 72
1960028N06135 1960 5 WP MM IVY 1960-02-02 15:00:00 TS 13.8097 135.065 main 1055 1055 __P___________ -1 13.8097 135.065 1 26 1003 28 80
1960028N06135 1960 5 WP MM IVY 1960-02-02 18:00:00 TS 14.0000 136.600 main 1219 1219 __O___________ -1 14.0000 136.600 1 23 1004 31 87
1960028N06135 1960 5 WP MM IVY 1960-02-02 21:00:00 TS 13.9842 138.235 main 1387 1387 __P___________ -1 13.9842 138.235 1 23 1005 33 90
1960028N06135 1960 5 WP MM IVY 1960-02-03 00:00:00 TS 14.0000 140.000 main 1578 1578 __O___________ -1 14.0000 140.000 1 23 1006 35 86
1960028N06135 1960 5 WP MM IVY 1960-02-03 03:00:00 TS 14.2520 141.843 main 1775 1775 __P___________ -1 14.2520 141.843 1 1007 37 79
1960028N06135 1960 5 WP MM IVY 1960-02-03 06:00:00 TS 14.7000 143.700 main 1909 1907 __O___________ -1 14.7000 143.700 0 1008 37 73
1960028N06135 1960 5 WP MM IVY 1960-02-03 09:00:00 TS 15.3096 145.475 main 1953 1952 __P___________ -1 15.3096 145.475 0 1009 36 69
1960028N06135 1960 5 WP MM IVY 1960-02-03 12:00:00 TS 16.0000 147.200 main 2027 __O___________ -1 16.0000 147.200 0 1010 36 67

Digital Typhoon Data and Search

About IBTrACS Database

This database is a web-friendly format of International Best Track Archive for Climate Stewardship (IBTrACS), a global best track data archive curated by NOAA dating back to 1842.

Updated: 2021-12-03